METAR Data

Data at: 1832 UTC 21 Nov 2018

METAR for:KLEW (Auburn-Lewiston Muni, ME, US)
Text:KLEW 211756Z AUTO 18008KT 10SM SCT022 BKN027 OVC095 01/M04 A2978 RMK AO2 SLP100 T00061039 10006 21067 56038 FZRANO
Temperature: 0.6°C ( 33°F)
Dewpoint: -3.9°C ( 25°F) [RH = 72%]
Pressure (altimeter):29.78 inches Hg (1008.5 mb) [Sea level pressure: 1010.0 mb]
Winds:from the S (180 degrees) at 9 MPH (8 knots; 4.1 m/s)
Visibility:10 or more sm (16+ km)
Ceiling:2700 feet AGL
Clouds: scattered clouds at 2200 feet AGL, broken clouds at 2700 feet AGL, overcast cloud deck at 9500 feet AGL
QC Flag:automated observation with no human augmentation